createdAt,value
2022-11-07T00:02:12.183Z,56.21
2022-11-07T00:04:38.863Z,56.34
2022-11-07T00:07:06.224Z,56.32
2022-11-07T00:09:32.606Z,56.23
2022-11-07T00:12:00.240Z,56.22
2022-11-07T00:14:26.537Z,56.16
2022-11-07T00:16:52.836Z,56.27
2022-11-07T00:19:20.532Z,56.18
2022-11-07T00:21:47.330Z,56.27
2022-11-07T00:24:14.493Z,56.34
2022-11-07T00:26:40.852Z,56.21
2022-11-07T00:29:12.449Z,56.39
2022-11-07T00:31:38.778Z,56.39
2022-11-07T00:34:05.281Z,56.24
2022-11-07T00:36:31.596Z,56.35
2022-11-07T00:38:57.990Z,56.21
2022-11-07T00:41:24.525Z,56.29
2022-11-07T00:43:50.911Z,56.34
2022-11-07T00:46:18.758Z,56.45
2022-11-07T00:48:45.292Z,56.32
2022-11-07T00:51:13.026Z,56.47
2022-11-07T00:53:39.792Z,56.29
2022-11-07T00:56:07.589Z,56.34
2022-11-07T00:58:34.440Z,56.34
2022-11-07T01:01:06.429Z,56.45
2022-11-07T01:03:34.053Z,56.37
2022-11-07T01:06:01.046Z,56.42
2022-11-07T01:08:27.775Z,56.38
2022-11-07T01:10:54.134Z,56.52
2022-11-07T01:13:20.543Z,56.41
2022-11-07T01:15:46.820Z,56.50
2022-11-07T01:18:13.305Z,56.50
2022-11-07T01:20:40.914Z,56.58
2022-11-07T01:23:07.598Z,56.61
2022-11-07T01:25:35.776Z,56.60
2022-11-07T01:28:02.101Z,56.71
2022-11-07T01:30:28.390Z,56.56
2022-11-07T01:32:54.710Z,56.47
2022-11-07T01:35:21.042Z,56.47
2022-11-07T01:37:48.623Z,56.51
2022-11-07T01:40:14.935Z,56.58
2022-11-07T01:42:41.173Z,56.45
2022-11-07T01:45:08.075Z,56.64
2022-11-07T01:47:37.042Z,56.66
2022-11-07T01:50:03.956Z,56.73
2022-11-07T01:52:32.748Z,56.80
2022-11-07T01:55:03.892Z,56.94
2022-11-07T01:57:33.019Z,56.74
2022-11-07T02:00:01.710Z,56.61
2022-11-07T02:02:28.273Z,56.75
2022-11-07T02:04:55.714Z,56.75
2022-11-07T02:07:23.123Z,56.76
2022-11-07T02:09:50.750Z,56.80
2022-11-07T02:12:19.030Z,56.74
2022-11-07T02:14:45.669Z,56.80
2022-11-07T02:17:12.587Z,56.91
2022-11-07T02:19:40.245Z,56.84
2022-11-07T02:22:13.165Z,56.82
2022-11-07T02:24:40.844Z,57.00
2022-11-07T02:27:09.807Z,56.78
2022-11-07T02:29:37.768Z,56.83
2022-11-07T02:32:05.420Z,57.00
2022-11-07T02:34:31.717Z,56.80
2022-11-07T02:36:59.764Z,56.92
2022-11-07T02:39:26.362Z,56.87
2022-11-07T02:41:54.624Z,56.82
2022-11-07T02:44:21.001Z,56.89
2022-11-07T02:46:47.346Z,56.87
2022-11-07T02:49:13.867Z,56.80
2022-11-07T02:51:40.189Z,56.94
2022-11-07T02:54:06.503Z,56.87
2022-11-07T02:56:32.796Z,56.92
2022-11-07T02:59:00.492Z,56.75
2022-11-07T03:01:26.831Z,56.70
2022-11-07T03:03:53.289Z,56.68
2022-11-07T03:06:20.986Z,56.85
2022-11-07T03:08:47.617Z,56.79
2022-11-07T03:11:14.166Z,56.94
2022-11-07T03:13:40.447Z,56.88
2022-11-07T03:16:09.534Z,56.81
2022-11-07T03:18:36.279Z,56.95
2022-11-07T03:21:03.164Z,56.92
2022-11-07T03:23:29.524Z,56.88
2022-11-07T03:25:55.842Z,56.92
2022-11-07T03:28:22.176Z,56.91
2022-11-07T03:30:48.504Z,56.88
2022-11-07T03:33:16.807Z,56.88
2022-11-07T03:35:43.356Z,56.89
2022-11-07T03:38:09.719Z,56.92
2022-11-07T03:40:36.160Z,56.89
2022-11-07T03:43:02.593Z,56.93
2022-11-07T03:45:28.909Z,56.96
2022-11-07T03:47:55.224Z,56.91
2022-11-07T03:50:22.824Z,56.98
2022-11-07T03:52:49.465Z,56.86
2022-11-07T03:55:15.838Z,56.77
2022-11-07T03:57:42.585Z,56.94
2022-11-07T04:00:09.298Z,56.80
2022-11-07T04:02:35.719Z,56.84
2022-11-07T04:05:02.134Z,56.87
2022-11-07T04:07:29.909Z,56.94
2022-11-07T04:09:56.208Z,57.07
2022-11-07T04:12:22.565Z,57.05
2022-11-07T04:14:48.926Z,57.00
2022-11-07T04:17:15.262Z,56.91
2022-11-07T04:19:41.553Z,56.95
2022-11-07T04:22:07.967Z,56.91
2022-11-07T04:24:35.603Z,57.04
2022-11-07T04:27:01.901Z,56.91
2022-11-07T04:29:28.193Z,56.94
2022-11-07T04:31:54.512Z,57.05
2022-11-07T04:34:20.802Z,56.80
2022-11-07T04:36:47.077Z,56.79
2022-11-07T04:39:13.402Z,56.70
2022-11-07T04:41:41.016Z,56.76
2022-11-07T04:44:07.796Z,56.61
2022-11-07T04:46:34.176Z,56.73
2022-11-07T04:49:00.421Z,56.60
2022-11-07T04:51:26.870Z,56.67
2022-11-07T04:53:53.380Z,56.59
2022-11-07T04:56:19.712Z,56.54
2022-11-07T04:58:47.313Z,56.54
2022-11-07T05:01:13.578Z,56.51
2022-11-07T05:03:42.034Z,56.57
2022-11-07T05:06:09.827Z,56.44
2022-11-07T05:08:36.125Z,56.48
2022-11-07T05:11:02.424Z,56.41
2022-11-07T05:13:28.727Z,56.43
2022-11-07T05:15:57.544Z,56.39
2022-11-07T05:18:23.966Z,56.33
2022-11-07T05:20:50.357Z,56.26
2022-11-07T05:23:16.822Z,56.20
2022-11-07T05:25:44.244Z,56.22
2022-11-07T05:28:10.713Z,56.22
2022-11-07T05:30:38.503Z,56.24
2022-11-07T05:33:06.165Z,56.20
2022-11-07T05:35:32.477Z,56.11
2022-11-07T05:37:58.779Z,56.05
2022-11-07T05:40:25.016Z,56.05
2022-11-07T05:42:51.302Z,56.16
2022-11-07T05:45:17.644Z,56.11
2022-11-07T05:47:43.894Z,57.16
2022-11-07T05:50:11.606Z,64.85
2022-11-07T05:52:37.968Z,64.46
2022-11-07T05:55:04.574Z,65.55
2022-11-07T05:57:30.907Z,66.65
2022-11-07T05:59:57.414Z,66.68
2022-11-07T06:02:23.876Z,65.14
2022-11-07T06:04:50.354Z,63.86
2022-11-07T06:07:18.046Z,63.53
2022-11-07T06:09:44.346Z,62.77
2022-11-07T06:12:10.640Z,61.83
2022-11-07T06:14:36.968Z,61.26
2022-11-07T06:17:03.288Z,60.86
2022-11-07T06:19:29.586Z,60.64
2022-11-07T06:21:55.996Z,60.24
2022-11-07T06:24:23.576Z,60.13
2022-11-07T06:26:49.845Z,60.00
2022-11-07T06:29:16.238Z,59.74
2022-11-07T06:31:42.580Z,59.57
2022-11-07T06:34:08.911Z,59.44
2022-11-07T06:36:35.255Z,59.42
2022-11-07T06:39:01.553Z,58.96
2022-11-07T06:41:29.160Z,58.82
2022-11-07T06:43:55.506Z,58.66
2022-11-07T06:46:21.782Z,58.40
2022-11-07T06:48:48.200Z,58.38
2022-11-07T06:51:14.536Z,58.32
2022-11-07T06:53:40.925Z,58.20
2022-11-07T06:56:08.260Z,58.18
2022-11-07T06:58:36.025Z,57.95
2022-11-07T07:01:02.885Z,57.85
2022-11-07T07:03:29.823Z,57.58
2022-11-07T07:06:00.094Z,57.60
2022-11-07T07:08:26.376Z,57.57
2022-11-07T07:10:52.698Z,57.55
2022-11-07T07:13:19.156Z,57.59
2022-11-07T07:15:53.250Z,57.46
2022-11-07T07:18:19.784Z,57.33
2022-11-07T07:20:46.327Z,57.15
2022-11-07T07:23:12.794Z,57.05
2022-11-07T07:25:39.225Z,57.04
2022-11-07T07:28:05.555Z,57.01
2022-11-07T07:30:31.807Z,56.90
2022-11-07T07:32:59.445Z,56.81
2022-11-07T07:35:25.849Z,56.77
2022-11-07T07:37:52.173Z,56.94
2022-11-07T07:40:19.074Z,56.84
2022-11-07T07:42:45.619Z,56.62
2022-11-07T07:45:12.758Z,56.52
2022-11-07T07:47:39.384Z,56.46
2022-11-07T07:50:08.620Z,56.36
2022-11-07T07:52:34.901Z,56.52
2022-11-07T07:55:01.443Z,56.44
2022-11-07T07:57:27.888Z,56.36
2022-11-07T07:59:54.189Z,56.34
2022-11-07T08:02:20.574Z,56.59
2022-11-07T08:04:47.031Z,56.50
2022-11-07T08:07:14.993Z,56.66
2022-11-07T08:09:41.314Z,56.79
2022-11-07T08:12:11.836Z,56.90
2022-11-07T08:14:38.212Z,56.98
2022-11-07T08:17:04.546Z,57.15
2022-11-07T08:19:31.394Z,57.31
2022-11-07T08:21:57.802Z,57.15
2022-11-07T08:24:25.477Z,57.24
2022-11-07T08:26:52.064Z,57.34
2022-11-07T08:29:18.569Z,57.47
2022-11-07T08:31:45.012Z,57.21
2022-11-07T08:34:11.407Z,57.48
2022-11-07T08:36:37.975Z,57.32
2022-11-07T08:39:04.394Z,57.34
2022-11-07T08:41:31.954Z,57.21
2022-11-07T08:43:58.285Z,57.04
2022-11-07T08:46:24.650Z,56.97
2022-11-07T08:48:50.949Z,57.12
2022-11-07T08:51:17.243Z,56.96
2022-11-07T08:53:43.583Z,56.86
2022-11-07T08:56:10.325Z,57.07
2022-11-07T08:58:38.311Z,56.83
2022-11-07T09:01:05.572Z,56.77
2022-11-07T09:03:50.311Z,56.81
2022-11-07T09:06:18.302Z,56.76
2022-11-07T09:08:45.036Z,56.65
2022-11-07T09:11:11.441Z,56.94
2022-11-07T09:13:39.116Z,56.62
2022-11-07T09:16:05.663Z,56.53
2022-11-07T09:18:32.344Z,56.55
2022-11-07T09:20:58.677Z,56.71
2022-11-07T09:23:25.004Z,56.54
2022-11-07T09:25:51.346Z,56.67
2022-11-07T09:28:17.662Z,56.63
2022-11-07T09:30:45.277Z,56.68
2022-11-07T09:33:11.777Z,56.91
2022-11-07T09:35:38.134Z,56.71
2022-11-07T09:38:04.608Z,56.81
2022-11-07T09:40:38.176Z,56.87
2022-11-07T09:43:14.059Z,56.90
2022-11-07T09:45:50.075Z,57.05
2022-11-07T09:48:21.830Z,57.04
2022-11-07T09:50:48.598Z,56.99
2022-11-07T09:53:18.343Z,56.79
2022-11-07T09:55:49.907Z,56.96
2022-11-07T09:58:20.567Z,56.96
2022-11-07T10:00:47.167Z,56.84
2022-11-07T10:03:14.256Z,56.99
2022-11-07T10:05:46.297Z,56.91
2022-11-07T10:08:16.320Z,56.88
2022-11-07T10:10:44.722Z,56.64
2022-11-07T10:13:19.897Z,56.74
2022-11-07T10:15:52.157Z,56.83
2022-11-07T10:18:24.117Z,56.87
2022-11-07T10:21:16.080Z,56.83
2022-11-07T10:23:50.139Z,56.65
2022-11-07T10:26:18.873Z,56.72
2022-11-07T10:28:47.469Z,56.58
2022-11-07T10:31:15.028Z,56.52
2022-11-07T10:33:44.637Z,56.68
2022-11-07T10:36:16.695Z,56.72
2022-11-07T10:38:43.303Z,56.51
2022-11-07T10:41:13.522Z,56.39
2022-11-07T10:43:40.612Z,56.63
2022-11-07T10:46:15.642Z,56.79
2022-11-07T10:48:49.708Z,56.66
2022-11-07T10:51:17.357Z,56.50
2022-11-07T10:53:44.207Z,56.54
2022-11-07T10:56:11.293Z,56.61
2022-11-07T10:58:43.381Z,56.46
2022-11-07T11:01:10.272Z,57.13
2022-11-07T11:03:44.642Z,56.71
2022-11-07T11:06:19.596Z,56.42
2022-11-07T11:08:48.084Z,56.39
2022-11-07T11:11:15.000Z,56.40
2022-11-07T11:13:41.453Z,56.30
2022-11-07T11:16:15.843Z,56.26
2022-11-07T11:18:48.051Z,56.27
2022-11-07T11:21:14.346Z,56.11
2022-11-07T11:23:43.112Z,56.28
2022-11-07T11:26:15.806Z,56.23
2022-11-07T11:28:44.273Z,56.08
2022-11-07T11:31:12.375Z,56.03
2022-11-07T11:33:42.274Z,56.17
2022-11-07T11:36:10.186Z,56.10
2022-11-07T11:38:36.691Z,56.23
2022-11-07T11:41:10.703Z,56.17
2022-11-07T11:43:41.642Z,56.25
2022-11-07T11:46:11.105Z,56.04
2022-11-07T11:48:41.183Z,56.16
2022-11-07T11:51:12.082Z,56.10
2022-11-07T11:53:38.717Z,56.10
2022-11-07T11:56:15.933Z,56.13
2022-11-07T11:58:46.263Z,56.24
2022-11-07T12:01:19.144Z,56.34
2022-11-07T12:03:55.475Z,56.42
2022-11-07T12:06:25.704Z,56.54
2022-11-07T12:09:00.251Z,56.63
2022-11-07T12:11:29.144Z,56.50
2022-11-07T12:14:00.802Z,56.62
2022-11-07T12:16:30.468Z,56.78
2022-11-07T12:19:03.394Z,56.95
2022-11-07T12:21:31.452Z,56.89
2022-11-07T12:24:02.078Z,57.09
2022-11-07T12:26:30.109Z,56.99
2022-11-07T12:29:04.707Z,57.04
2022-11-07T12:31:41.685Z,57.39
2022-11-07T12:34:15.621Z,57.38
2022-11-07T12:36:50.558Z,57.36
2022-11-07T12:39:23.552Z,57.65
2022-11-07T12:41:56.123Z,57.50
2022-11-07T12:44:32.950Z,57.59
2022-11-07T12:47:01.733Z,57.45
2022-11-07T12:49:37.268Z,57.45
2022-11-07T12:52:10.660Z,57.46
2022-11-07T12:54:42.390Z,57.68
2022-11-07T12:57:13.957Z,57.54
2022-11-07T12:59:44.738Z,57.46
2022-11-07T13:02:20.431Z,57.29
2022-11-07T13:04:51.249Z,57.23
2022-11-07T13:07:21.648Z,57.20
2022-11-07T13:09:52.330Z,57.21
2022-11-07T13:12:22.932Z,57.16
2022-11-07T13:14:50.777Z,56.94
2022-11-07T13:17:18.614Z,57.14
2022-11-07T13:19:45.434Z,57.05
2022-11-07T13:22:22.081Z,57.02
2022-11-07T13:24:51.088Z,57.17
2022-11-07T13:27:21.479Z,57.00
2022-11-07T13:29:47.909Z,56.96
2022-11-07T13:32:16.360Z,57.19
2022-11-07T13:34:47.730Z,56.85
2022-11-07T13:37:17.756Z,57.01
2022-11-07T13:39:45.575Z,57.30
2022-11-07T13:42:15.956Z,57.23
2022-11-07T13:44:43.745Z,57.23
2022-11-07T13:47:13.558Z,57.09
2022-11-07T13:49:45.042Z,57.26
2022-11-07T13:52:16.732Z,56.96
2022-11-07T13:54:48.943Z,56.96
2022-11-07T13:57:18.746Z,56.94
2022-11-07T13:59:47.651Z,56.64
2022-11-07T14:02:20.155Z,56.99
2022-11-07T14:05:15.335Z,57.04
2022-11-07T14:07:40.926Z,56.93
2022-11-07T14:10:14.346Z,56.54
2022-11-07T14:12:40.850Z,56.77
2022-11-07T14:15:13.548Z,56.82
2022-11-07T14:17:40.901Z,56.65
2022-11-07T14:20:13.771Z,56.06
2022-11-07T14:22:47.549Z,56.16
2022-11-07T14:25:18.674Z,55.90
2022-11-07T14:27:45.509Z,55.86
2022-11-07T14:30:15.548Z,55.76
2022-11-07T14:32:46.788Z,55.94
2022-11-07T14:35:17.659Z,56.04
2022-11-07T14:37:44.100Z,55.94
2022-11-07T14:40:10.984Z,56.09
2022-11-07T14:42:37.393Z,56.08
2022-11-07T14:45:04.533Z,56.20
2022-11-07T14:47:32.126Z,56.08
2022-11-07T14:49:59.496Z,56.07
2022-11-07T14:52:29.325Z,56.11
2022-11-07T14:54:59.876Z,55.74
2022-11-07T14:57:26.478Z,55.76
2022-11-07T14:59:53.246Z,55.95
2022-11-07T15:02:23.498Z,55.55
2022-11-07T15:04:50.454Z,55.93
2022-11-07T15:07:21.940Z,55.75
2022-11-07T15:09:50.544Z,55.75
2022-11-07T15:12:18.174Z,55.72
2022-11-07T15:14:45.262Z,55.85
2022-11-07T15:17:20.977Z,55.97
2022-11-07T15:19:54.171Z,55.77
2022-11-07T15:22:24.461Z,55.96
2022-11-07T15:24:52.560Z,55.92
2022-11-07T15:27:19.957Z,55.99
2022-11-07T15:29:51.677Z,55.73
2022-11-07T15:32:19.999Z,56.14
2022-11-07T15:35:30.103Z,56.07
2022-11-07T15:37:36.388Z,56.29
2022-11-07T15:40:10.255Z,56.03
2022-11-07T15:42:37.165Z,56.39
2022-11-07T15:45:03.798Z,56.33
2022-11-07T15:47:30.363Z,56.33
2022-11-07T15:49:56.682Z,56.00
2022-11-07T15:52:23.014Z,56.18
2022-11-07T15:54:49.308Z,56.31
2022-11-07T15:57:17.657Z,56.09
2022-11-07T15:59:44.018Z,56.27
2022-11-07T16:02:14.340Z,56.16
2022-11-07T16:04:40.778Z,56.15
2022-11-07T16:07:08.855Z,56.28
2022-11-07T16:09:35.285Z,56.17
2022-11-07T16:12:01.719Z,56.26
2022-11-07T16:14:43.396Z,56.13
2022-11-07T16:17:12.325Z,56.09
2022-11-07T16:19:38.702Z,56.08
2022-11-07T16:22:05.033Z,55.99
2022-11-07T16:24:31.468Z,56.21
2022-11-07T16:26:57.855Z,56.11
2022-11-07T16:29:24.407Z,56.22
2022-11-07T16:31:52.155Z,56.10
2022-11-07T16:34:18.650Z,55.91
2022-11-07T16:36:45.971Z,55.99
2022-11-07T16:39:17.421Z,55.96
2022-11-07T16:41:43.892Z,56.00
2022-11-07T16:44:10.536Z,55.90
2022-11-07T16:46:37.423Z,55.90
2022-11-07T16:49:11.845Z,56.09
2022-11-07T16:51:38.188Z,55.99
2022-11-07T16:54:04.528Z,56.05
2022-11-07T16:56:31.538Z,56.17
2022-11-07T16:58:58.322Z,56.15
2022-11-07T17:01:25.745Z,56.17
2022-11-07T17:03:52.222Z,56.21
2022-11-07T17:06:22.260Z,56.15
2022-11-07T17:08:48.646Z,56.02
2022-11-07T17:11:16.178Z,56.27
2022-11-07T17:13:42.890Z,56.15
2022-11-07T17:16:11.787Z,56.33
2022-11-07T17:18:38.209Z,56.28
2022-11-07T17:21:04.560Z,56.24
2022-11-07T17:23:32.214Z,56.27
2022-11-07T17:25:58.760Z,56.25
2022-11-07T17:28:25.114Z,56.24
2022-11-07T17:30:51.678Z,56.30
2022-11-07T17:33:18.208Z,56.50
2022-11-07T17:35:44.572Z,56.41
2022-11-07T17:38:14.821Z,56.28
2022-11-07T17:40:42.791Z,56.40
2022-11-07T17:43:09.154Z,56.31
2022-11-07T17:45:36.450Z,56.45
2022-11-07T17:48:02.797Z,56.41
2022-11-07T17:50:29.359Z,56.33
2022-11-07T17:52:55.688Z,56.36
2022-11-07T17:55:21.980Z,56.43
2022-11-07T17:57:49.660Z,56.31
2022-11-07T18:00:17.048Z,56.38
2022-11-07T18:02:43.476Z,56.25
2022-11-07T18:05:12.916Z,56.26
2022-11-07T18:07:39.283Z,56.33
2022-11-07T18:10:06.021Z,56.44
2022-11-07T18:12:32.364Z,56.31
2022-11-07T18:14:59.971Z,56.48
2022-11-07T18:17:26.358Z,56.33
2022-11-07T18:19:52.707Z,56.30
2022-11-07T18:22:19.122Z,56.37
2022-11-07T18:24:45.492Z,56.39
2022-11-07T18:27:11.903Z,56.22
2022-11-07T18:29:38.721Z,56.37
2022-11-07T18:32:06.655Z,56.41
2022-11-07T18:34:34.893Z,56.39
2022-11-07T18:37:01.347Z,56.27
2022-11-07T18:39:27.706Z,56.22
2022-11-07T18:41:54.098Z,56.32
2022-11-07T18:44:20.506Z,56.26
2022-11-07T18:46:47.200Z,56.37
2022-11-07T18:49:15.252Z,56.33
2022-11-07T18:51:41.888Z,56.18
2022-11-07T18:54:09.651Z,56.19
2022-11-07T18:56:36.081Z,56.20
2022-11-07T18:59:02.416Z,56.12
2022-11-07T19:01:29.792Z,56.27
2022-11-07T19:03:57.206Z,56.21
2022-11-07T19:06:25.517Z,56.09
2022-11-07T19:08:52.089Z,56.05
2022-11-07T19:11:19.479Z,55.97
2022-11-07T19:13:46.385Z,55.90
2022-11-07T19:16:14.363Z,55.90
2022-11-07T19:18:43.076Z,56.02
2022-11-07T19:21:18.854Z,56.02
2022-11-07T19:23:47.968Z,56.01
2022-11-07T19:26:14.328Z,55.88
2022-11-07T19:28:40.800Z,55.91
2022-11-07T19:31:08.003Z,55.94
2022-11-07T19:33:34.502Z,55.90
2022-11-07T19:36:02.679Z,55.86
2022-11-07T19:38:29.426Z,55.91
2022-11-07T19:40:57.586Z,55.77
2022-11-07T19:43:23.904Z,55.82
2022-11-07T19:45:50.246Z,55.83
2022-11-07T19:48:16.597Z,55.83
2022-11-07T19:50:42.895Z,55.82
2022-11-07T19:53:09.198Z,55.82
2022-11-07T19:55:35.685Z,55.69
2022-11-07T19:58:03.432Z,55.77
2022-11-07T20:00:29.801Z,55.72
2022-11-07T20:02:56.486Z,55.83
2022-11-07T20:05:23.049Z,55.74
2022-11-07T20:07:54.172Z,55.82
2022-11-07T20:10:22.581Z,55.62
2022-11-07T20:12:49.361Z,55.70
2022-11-07T20:15:17.281Z,55.74
2022-11-07T20:17:43.865Z,55.65
2022-11-07T20:20:13.686Z,55.67
2022-11-07T20:22:46.237Z,55.63
2022-11-07T20:25:13.092Z,55.83
2022-11-07T20:27:39.420Z,55.49
2022-11-07T20:30:06.225Z,55.51
2022-11-07T20:32:33.827Z,55.51
2022-11-07T20:35:00.157Z,55.47
2022-11-07T20:37:26.634Z,55.46
2022-11-07T20:39:52.952Z,55.42
2022-11-07T20:42:19.264Z,55.41
2022-11-07T20:44:45.712Z,55.48
2022-11-07T20:47:12.310Z,55.62
2022-11-07T20:49:40.754Z,55.61
2022-11-07T20:52:07.130Z,55.24
2022-11-07T20:54:34.062Z,55.65
2022-11-07T20:57:00.310Z,55.69
2022-11-07T20:59:26.661Z,55.56
2022-11-07T21:01:53.104Z,55.57
2022-11-07T21:04:19.421Z,55.51
2022-11-07T21:06:47.623Z,55.55
2022-11-07T21:09:14.038Z,55.64
2022-11-07T21:11:40.330Z,55.54
2022-11-07T21:14:06.617Z,55.55
2022-11-07T21:16:33.030Z,55.49
2022-11-07T21:18:59.367Z,55.51
2022-11-07T21:21:26.563Z,55.54
2022-11-07T21:23:55.221Z,55.59
2022-11-07T21:26:22.977Z,55.47
2022-11-07T21:28:49.488Z,55.65
2022-11-07T21:31:16.537Z,55.52
2022-11-07T21:33:42.775Z,55.61
2022-11-07T21:36:10.138Z,55.59
2022-11-07T21:38:36.458Z,55.56
2022-11-07T21:41:05.648Z,55.62
2022-11-07T21:43:31.987Z,55.58
2022-11-07T21:46:05.235Z,55.63
2022-11-07T21:48:31.650Z,55.53
2022-11-07T21:50:57.975Z,55.45
2022-11-07T21:53:24.289Z,55.64
2022-11-07T21:55:50.543Z,55.49
2022-11-07T21:58:18.146Z,55.58
2022-11-07T22:00:44.485Z,55.50
2022-11-07T22:03:10.807Z,55.56
2022-11-07T22:05:38.109Z,55.52
2022-11-07T22:08:04.479Z,55.68
2022-11-07T22:10:30.794Z,55.68
2022-11-07T22:12:57.201Z,55.37
2022-11-07T22:15:24.825Z,55.57
2022-11-07T22:17:51.665Z,55.57
2022-11-07T22:20:18.092Z,55.51
2022-11-07T22:22:44.374Z,55.60
2022-11-07T22:25:10.690Z,55.50
2022-11-07T22:27:37.020Z,55.57
2022-11-07T22:30:03.423Z,55.63
2022-11-07T22:32:31.071Z,55.50
2022-11-07T22:34:57.367Z,55.61
2022-11-07T22:37:23.724Z,55.63
2022-11-07T22:39:50.038Z,55.73
2022-11-07T22:42:21.036Z,55.56
2022-11-07T22:44:50.003Z,55.53
2022-11-07T22:47:16.319Z,55.52
2022-11-07T22:49:43.943Z,55.51
2022-11-07T22:52:10.366Z,55.48
2022-11-07T22:54:36.672Z,55.65
2022-11-07T22:57:03.007Z,55.52
2022-11-07T22:59:29.340Z,55.56
2022-11-07T23:01:55.784Z,55.53
2022-11-07T23:04:22.199Z,55.50
2022-11-07T23:06:49.832Z,55.54
2022-11-07T23:09:16.097Z,55.63
2022-11-07T23:11:48.024Z,55.60
2022-11-07T23:14:15.608Z,55.64
2022-11-07T23:16:43.956Z,55.50
2022-11-07T23:19:11.995Z,55.50
2022-11-07T23:21:38.426Z,55.36
2022-11-07T23:24:06.445Z,55.57
2022-11-07T23:26:33.333Z,55.55
2022-11-07T23:28:59.810Z,55.46
2022-11-07T23:31:26.085Z,55.57
2022-11-07T23:33:52.399Z,55.51
2022-11-07T23:36:18.720Z,55.35
2022-11-07T23:38:45.027Z,55.43
2022-11-07T23:41:13.500Z,55.42
2022-11-07T23:43:40.126Z,55.45
2022-11-07T23:46:07.020Z,55.56
2022-11-07T23:48:33.444Z,55.49
2022-11-07T23:50:59.793Z,55.46
2022-11-07T23:53:26.108Z,55.58
2022-11-07T23:55:52.483Z,55.40
2022-11-07T23:58:20.346Z,55.43
